Time;durP1;ratioP1;P1;durP2;ratioP2;P2;SDS_P1;SDS_P2;PMS_P1;PMS_P2;Temp;Humidity;BMP_temperature;BMP_pressure;BME280_temperature;BME280_humidity;BME280_pressure;Samples;Min_cycle;Max_cycle;Signal;HPM_P1;HPM_P2
2021/05/15 00:00:15;;;;;;;;;;;;;;;9.68;80.43;95109.80;1694777;85;20163;-67
2021/05/15 00:02:44;;;;;;;;;;;;;;;9.78;80.28;95112.63;1694419;84;20142;-67
2021/05/15 00:05:10;;;;;;;;;;;;;;;9.86;79.77;95108.50;1694548;85;20154;-67
2021/05/15 00:07:36;;;;;;;;;;;;;;;9.85;79.66;95113.34;1694584;85;20198;-67
2021/05/15 00:10:04;;;;;;;;;;;;;;;9.83;80.04;95108.13;1694681;85;20166;-67
2021/05/15 00:12:31;;;;;;;;;;;;;;;9.84;79.52;95120.38;1694617;85;20487;-67
2021/05/15 00:14:58;;;;;;;;;;;;;;;9.75;79.69;95114.00;1694737;84;20138;-67
2021/05/15 00:17:25;;;;;;;;;;;;;;;9.68;79.81;95123.83;1694707;85;20476;-67
2021/05/15 00:19:52;;;;;;;;;;;;;;;9.72;79.82;95118.02;1694728;84;20186;-66
2021/05/15 00:22:18;;;;;;;;;;;;;;;9.64;79.85;95119.98;1694680;85;20162;-67
2021/05/15 00:24:44;;;;;;;;;;;;;;;9.64;80.23;95126.56;1694724;85;20234;-67
2021/05/15 00:27:11;;;;;;;;;;;;;;;9.61;80.45;95122.69;1694789;85;20487;-67
2021/05/15 00:29:38;;;;;;;;;;;;;;;9.55;79.93;95117.11;1694932;85;20558;-67
2021/05/15 00:32:05;;;;;;;;;;;;;;;9.49;80.22;95133.03;1694582;85;20166;-67
2021/05/15 00:34:32;;;;;;;;;;;;;;;9.48;79.76;95131.31;1694806;85;20250;-67
2021/05/15 00:36:58;;;;;;;;;;;;;;;9.43;80.08;95133.17;1694715;85;20158;-67
2021/05/15 00:39:24;;;;;;;;;;;;;;;9.33;80.40;95131.19;1694788;85;20182;-67
2021/05/15 00:41:50;;;;;;;;;;;;;;;9.22;80.81;95133.16;1694990;85;20155;-66
2021/05/15 00:46:46;;;;;;;;;;;;;;;9.10;81.06;95135.16;1695181;84;20158;-66
2021/05/15 00:49:13;;;;;;;;;;;;;;;9.07;80.56;95136.55;1694798;84;20183;-66
2021/05/15 00:51:39;;;;;;;;;;;;;;;9.05;80.48;95135.70;1694296;85;20503;-67
2021/05/15 00:54:09;;;;;;;;;;;;;;;8.99;80.47;95142.38;1694805;85;20186;-67
2021/05/15 00:56:36;;;;;;;;;;;;;;;8.89;81.31;95142.14;1694207;85;20206;-67
2021/05/15 00:59:02;;;;;;;;;;;;;;;8.82;80.76;95139.20;1694585;84;20186;-67
2021/05/15 01:01:29;;;;;;;;;;;;;;;8.75;81.25;95145.51;1694757;85;20171;-67
2021/05/15 01:03:55;;;;;;;;;;;;;;;8.72;82.04;95149.06;1694895;84;20230;-67
2021/05/15 01:06:21;;;;;;;;;;;;;;;8.72;82.00;95145.54;1694521;85;20190;-66
2021/05/15 01:08:48;;;;;;;;;;;;;;;8.71;81.91;95151.25;1684776;84;20151;-67
2021/05/15 01:11:16;;;;;;;;;;;;;;;8.66;82.46;95147.84;1674176;85;20183;-67
2021/05/15 01:14:01;;;;;;;;;;;;;;;8.70;81.86;95152.62;1674084;85;20150;-66
2021/05/15 01:16:27;;;;;;;;;;;;;;;8.68;81.98;95144.74;1674581;85;20190;-67
2021/05/15 01:18:53;;;;;;;;;;;;;;;8.75;81.86;95146.83;1674150;85;20487;-66
2021/05/15 01:21:20;;;;;;;;;;;;;;;8.75;82.11;95142.88;1673990;86;20146;-66
2021/05/15 01:23:46;;;;;;;;;;;;;;;8.74;81.87;95148.56;1674127;86;20479;-67
2021/05/15 01:26:18;;;;;;;;;;;;;;;8.69;81.79;95148.23;1674152;86;20191;-67
2021/05/15 01:28:45;;;;;;;;;;;;;;;8.76;81.58;95140.66;1674014;86;20179;-67
2021/05/15 01:31:12;;;;;;;;;;;;;;;8.71;81.65;95143.36;1674142;85;20194;-66
2021/05/15 01:33:39;;;;;;;;;;;;;;;8.73;81.11;95142.89;1673946;85;20479;-67
2021/05/15 01:36:06;;;;;;;;;;;;;;;8.71;81.18;95141.19;1673766;86;20162;-66
2021/05/15 01:38:33;;;;;;;;;;;;;;;8.63;81.33;95140.88;1674153;86;20146;-66
2021/05/15 01:41:07;;;;;;;;;;;;;;;8.61;81.36;95142.66;1674101;86;20154;-66
2021/05/15 01:43:34;;;;;;;;;;;;;;;8.68;81.10;95140.80;1674118;85;20158;-66
2021/05/15 01:46:03;;;;;;;;;;;;;;;8.63;80.92;95143.50;1673991;86;20197;-66
2021/05/15 01:48:29;;;;;;;;;;;;;;;8.58;81.37;95140.09;1673963;85;20487;-66
2021/05/15 01:51:07;;;;;;;;;;;;;;;8.60;81.12;95143.57;1673996;85;20166;-67
2021/05/15 01:53:36;;;;;;;;;;;;;;;8.55;80.90;95140.61;1674056;85;20165;-67
2021/05/15 01:56:05;;;;;;;;;;;;;;;8.46;81.41;95140.31;1673557;85;20546;-67
2021/05/15 01:58:32;;;;;;;;;;;;;;;8.47;81.39;95146.01;1674163;86;20178;-66
2021/05/15 02:00:58;;;;;;;;;;;;;;;8.39;80.98;95142.20;1674142;85;20161;-66
2021/05/15 02:03:25;;;;;;;;;;;;;;;8.35;81.58;95143.55;1674053;85;20171;-67
2021/05/15 02:05:53;;;;;;;;;;;;;;;8.44;81.63;95144.72;1674071;86;20197;-67
2021/05/15 02:08:21;;;;;;;;;;;;;;;8.42;81.16;95139.51;1673907;85;20178;-67
2021/05/15 02:10:48;;;;;;;;;;;;;;;8.38;81.27;95139.55;1674134;86;20138;-67
2021/05/15 02:13:18;;;;;;;;;;;;;;;8.33;81.59;95138.77;1674183;86;20194;-66
2021/05/15 02:15:45;;;;;;;;;;;;;;;8.35;81.52;95144.87;1674013;85;20194;-67
2021/05/15 02:18:15;;;;;;;;;;;;;;;8.32;80.93;95147.11;1674139;85;20199;-66
2021/05/15 02:20:42;;;;;;;;;;;;;;;8.23;81.35;95136.73;1673988;86;20492;-67
2021/05/15 02:23:10;;;;;;;;;;;;;;;8.16;81.52;95144.30;1674018;86;20150;-66
2021/05/15 02:25:37;;;;;;;;;;;;;;;8.10;81.95;95149.21;1674079;86;20151;-66
2021/05/15 02:28:04;;;;;;;;;;;;;;;8.05;82.25;95143.16;1674109;85;20179;-66
2021/05/15 02:30:32;;;;;;;;;;;;;;;8.06;81.99;95146.20;1673998;85;20150;-67
2021/05/15 02:32:59;;;;;;;;;;;;;;;8.00;82.29;95143.69;1674005;86;20167;-67
2021/05/15 02:35:25;;;;;;;;;;;;;;;8.00;82.33;95145.00;1674082;85;20150;-67
2021/05/15 02:37:53;;;;;;;;;;;;;;;7.93;82.26;95149.47;1673769;86;20162;-67
2021/05/15 02:40:20;;;;;;;;;;;;;;;7.92;82.55;95150.83;1674108;86;20491;-66
2021/05/15 02:42:51;;;;;;;;;;;;;;;7.96;82.33;95145.92;1673989;86;20170;-66
2021/05/15 02:45:23;;;;;;;;;;;;;;;7.94;81.78;95151.67;1674100;85;20491;-67
2021/05/15 02:47:50;;;;;;;;;;;;;;;7.94;82.35;95151.67;1674105;85;20150;-67
2021/05/15 02:50:17;;;;;;;;;;;;;;;7.89;82.53;95146.94;1673908;86;20166;-67
2021/05/15 02:52:44;;;;;;;;;;;;;;;7.78;82.43;95147.08;1673960;86;20163;-67
2021/05/15 02:55:13;;;;;;;;;;;;;;;7.74;83.77;95154.15;1674192;85;20468;-66
2021/05/15 02:57:41;;;;;;;;;;;;;;;7.71;83.05;95154.20;1674000;85;20184;-67
2021/05/15 03:00:10;;;;;;;;;;;;;;;7.70;82.73;95156.83;1674076;86;20170;-67
2021/05/15 03:02:36;;;;;;;;;;;;;;;7.74;82.40;95152.84;1674233;85;20158;-67
2021/05/15 03:05:05;;;;;;;;;;;;;;;7.76;82.16;95152.38;1673954;86;20190;-66
2021/05/15 03:07:31;;;;;;;;;;;;;;;7.78;82.22;95145.77;1673309;86;20186;-67
2021/05/15 03:09:57;;;;;;;;;;;;;;;7.76;82.73;95148.85;1689175;85;20166;-67
2021/05/15 03:12:24;;;;;;;;;;;;;;;7.75;83.55;95153.70;1694632;85;20169;-66
2021/05/15 03:14:50;;;;;;;;;;;;;;;7.84;83.39;95157.93;1694698;84;20507;-66
2021/05/15 03:17:16;;;;;;;;;;;;;;;7.89;83.06;95157.45;1694605;85;20155;-66
2021/05/15 03:19:42;;;;;;;;;;;;;;;7.89;82.77;95156.13;1694470;85;20154;-66
2021/05/15 03:22:09;;;;;;;;;;;;;;;7.85;83.62;95157.06;1694139;85;20142;-67
2021/05/15 03:24:36;;;;;;;;;;;;;;;7.92;83.39;95157.39;1694706;85;20166;-66
2021/05/15 03:27:02;;;;;;;;;;;;;;;8.00;82.99;95164.25;1694454;85;20186;-67
2021/05/15 03:29:29;;;;;;;;;;;;;;;8.00;82.73;95167.33;1694692;84;20459;-67
2021/05/15 03:31:56;;;;;;;;;;;;;;;8.05;82.56;95158.06;1694698;85;20167;-67
2021/05/15 03:34:23;;;;;;;;;;;;;;;8.01;82.54;95162.48;1694706;84;20488;-67
2021/05/15 03:36:49;;;;;;;;;;;;;;;8.01;82.37;95169.95;1694535;85;20510;-67
2021/05/15 03:39:19;;;;;;;;;;;;;;;7.95;82.59;95167.39;1694579;85;20150;-66
2021/05/15 03:41:46;;;;;;;;;;;;;;;8.06;82.38;95172.92;1694685;84;20182;-66
2021/05/15 03:44:13;;;;;;;;;;;;;;;8.03;82.07;95179.09;1694582;85;20191;-67
2021/05/15 03:46:40;;;;;;;;;;;;;;;7.94;81.90;95181.44;1694429;85;20174;-67
2021/05/15 03:49:06;;;;;;;;;;;;;;;7.95;82.00;95180.98;1694907;85;20155;-66
2021/05/15 03:51:33;;;;;;;;;;;;;;;7.91;82.29;95188.47;1694701;85;20262;-66
2021/05/15 03:54:00;;;;;;;;;;;;;;;7.97;82.03;95197.59;1660079;85;20162;-66
2021/05/15 03:56:26;;;;;;;;;;;;;;;7.90;82.43;95192.00;1694898;85;20155;-66
2021/05/15 03:58:53;;;;;;;;;;;;;;;7.87;82.17;95198.63;1694930;85;20182;-66
2021/05/15 04:01:21;;;;;;;;;;;;;;;7.87;81.97;95205.19;1660438;85;20146;-66
2021/05/15 04:03:49;;;;;;;;;;;;;;;7.86;82.24;95203.44;1694732;85;20230;-66
2021/05/15 04:06:16;;;;;;;;;;;;;;;7.93;82.28;95206.40;1694792;85;20142;-66
2021/05/15 04:08:42;;;;;;;;;;;;;;;7.89;82.16;95212.16;1695097;85;20158;-66
2021/05/15 04:11:09;;;;;;;;;;;;;;;7.88;82.96;95213.48;1698355;85;20539;-67
2021/05/15 04:16:18;;;;;;;;;;;;;;;7.95;83.02;95209.42;1698133;85;20470;-66
2021/05/15 04:18:42;;;;;;;;;;;;;;;7.95;83.23;95211.19;1697847;85;20494;-66
2021/05/15 04:21:08;;;;;;;;;;;;;;;8.01;82.89;95211.98;1698408;85;20154;-66
2021/05/15 04:23:34;;;;;;;;;;;;;;;8.00;83.04;95204.97;1698156;85;20491;-66
2021/05/15 04:26:01;;;;;;;;;;;;;;;8.03;83.09;95211.94;1698371;85;20167;-66
2021/05/15 04:28:27;;;;;;;;;;;;;;;8.09;83.14;95215.81;1698189;85;20187;-66
2021/05/15 04:30:54;;;;;;;;;;;;;;;8.19;83.07;95216.54;1671053;85;20163;-66
2021/05/15 04:33:24;;;;;;;;;;;;;;;8.30;82.98;95222.48;1698275;85;20182;-66
2021/05/15 04:35:51;;;;;;;;;;;;;;;8.37;82.80;95224.13;1698094;85;20166;-67
2021/05/15 04:38:18;;;;;;;;;;;;;;;8.40;82.74;95224.10;1697317;85;20183;-66
2021/05/15 04:40:45;;;;;;;;;;;;;;;8.45;82.62;95226.66;1698392;85;20166;-67
2021/05/15 04:43:14;;;;;;;;;;;;;;;8.51;82.42;95225.23;1698212;85;20538;-66
2021/05/15 04:45:43;;;;;;;;;;;;;;;8.57;82.60;95230.41;1698185;85;20515;-67
2021/05/15 04:48:10;;;;;;;;;;;;;;;8.72;82.72;95229.70;1698320;85;20233;-66
2021/05/15 04:50:38;;;;;;;;;;;;;;;8.84;82.39;95225.13;1698186;85;20495;-66
2021/05/15 04:53:05;;;;;;;;;;;;;;;8.98;82.87;95230.13;1698101;85;20523;-67
2021/05/15 04:55:32;;;;;;;;;;;;;;;9.09;82.60;95222.03;1698197;85;20157;-66
2021/05/15 04:58:00;;;;;;;;;;;;;;;9.23;82.29;95228.36;1698395;85;20154;-67
2021/05/15 05:00:27;;;;;;;;;;;;;;;9.36;81.86;95228.53;1698357;85;20488;-67
2021/05/15 05:02:54;;;;;;;;;;;;;;;9.45;81.39;95224.83;1698254;85;20171;-67
2021/05/15 05:05:21;;;;;;;;;;;;;;;9.57;81.26;95221.09;1698194;85;20150;-67
2021/05/15 05:07:47;;;;;;;;;;;;;;;9.72;81.28;95220.31;1697990;85;20522;-67
2021/05/15 05:10:14;;;;;;;;;;;;;;;9.91;81.08;95220.80;1695985;84;20519;-66
2021/05/15 05:12:41;;;;;;;;;;;;;;;10.10;81.15;95218.60;1661052;85;20163;-68
2021/05/15 05:15:08;;;;;;;;;;;;;;;10.24;80.72;95222.26;1694884;85;20162;-67
2021/05/15 05:17:34;;;;;;;;;;;;;;;10.34;80.74;95219.84;1694738;84;20150;-67
2021/05/15 05:20:00;;;;;;;;;;;;;;;10.50;80.54;95222.13;1694892;85;20226;-67
2021/05/15 05:22:27;;;;;;;;;;;;;;;10.67;79.54;95211.16;1694551;84;20147;-67
2021/05/15 05:24:53;;;;;;;;;;;;;;;10.85;79.56;95215.95;1694646;85;20170;-67
2021/05/15 05:27:21;;;;;;;;;;;;;;;11.05;78.61;95218.94;1694843;85;20523;-66
2021/05/15 05:29:48;;;;;;;;;;;;;;;11.19;77.86;95217.27;1694885;85;20218;-67
2021/05/15 05:32:15;;;;;;;;;;;;;;;11.34;77.33;95215.09;1694645;84;20520;-67
2021/05/15 05:34:42;;;;;;;;;;;;;;;11.48;77.33;95207.20;1694884;85;20158;-67
2021/05/15 05:37:08;;;;;;;;;;;;;;;11.68;77.38;95201.81;1694574;85;20546;-66
2021/05/15 05:39:36;;;;;;;;;;;;;;;11.90;76.34;95206.05;1694769;85;20160;-67
2021/05/15 05:42:03;;;;;;;;;;;;;;;12.05;74.91;95206.05;1694856;85;20167;-67
2021/05/15 05:44:29;;;;;;;;;;;;;;;12.17;74.40;95206.99;1694733;85;20158;-67
2021/05/15 05:46:55;;;;;;;;;;;;;;;12.28;70.81;95206.65;1694635;85;20180;-67
2021/05/15 05:49:22;;;;;;;;;;;;;;;12.43;71.91;95203.52;1694754;85;20266;-67
2021/05/15 05:51:49;;;;;;;;;;;;;;;12.56;72.74;95198.69;1694651;85;20206;-67
2021/05/15 05:54:15;;;;;;;;;;;;;;;12.70;72.69;95194.25;1694558;85;20479;-67
2021/05/15 05:56:41;;;;;;;;;;;;;;;12.89;71.82;95199.81;1694731;85;20249;-67
2021/05/15 05:59:08;;;;;;;;;;;;;;;13.02;71.75;95192.31;1694712;85;20242;-67
2021/05/15 06:01:36;;;;;;;;;;;;;;;13.20;72.04;95196.95;1694782;85;20487;-67
2021/05/15 06:04:03;;;;;;;;;;;;;;;13.35;70.42;95199.09;1694743;85;20178;-67
2021/05/15 06:06:29;;;;;;;;;;;;;;;13.47;69.70;95197.80;1694725;84;20154;-67
2021/05/15 06:08:56;;;;;;;;;;;;;;;13.62;68.82;95192.40;1694460;85;20146;-67
2021/05/15 06:11:23;;;;;;;;;;;;;;;13.73;68.12;95193.31;1694786;85;20177;-67
2021/05/15 06:13:50;;;;;;;;;;;;;;;13.84;68.61;95188.49;1694471;85;20202;-67
2021/05/15 06:16:16;;;;;;;;;;;;;;;13.90;66.77;95188.71;1694747;85;20166;-67
2021/05/15 06:18:43;;;;;;;;;;;;;;;13.92;66.15;95183.75;1694941;84;20143;-67
2021/05/15 06:21:09;;;;;;;;;;;;;;;13.98;65.78;95182.17;1694541;85;20162;-67
2021/05/15 06:23:35;;;;;;;;;;;;;;;14.07;66.97;95184.48;1694743;85;20175;-67
2021/05/15 06:26:07;;;;;;;;;;;;;;;14.19;65.44;95183.63;1694698;85;20193;-67
2021/05/15 06:28:30;;;;;;;;;;;;;;;14.32;66.59;95180.02;1693882;85;20206;-67
2021/05/15 06:30:56;;;;;;;;;;;;;;;14.43;66.37;95179.11;1694722;85;20179;-68
2021/05/15 06:33:22;;;;;;;;;;;;;;;14.49;64.95;95178.88;1694703;85;20142;-67
2021/05/15 06:35:48;;;;;;;;;;;;;;;14.62;65.97;95184.13;1694468;84;20156;-68
2021/05/15 06:38:15;;;;;;;;;;;;;;;14.77;66.24;95183.09;1694723;85;20162;-68
2021/05/15 06:40:42;;;;;;;;;;;;;;;14.87;63.32;95184.44;1694644;85;20177;-68
2021/05/15 06:43:08;;;;;;;;;;;;;;;14.96;64.63;95180.52;1694614;85;20143;-67
2021/05/15 06:45:34;;;;;;;;;;;;;;;15.03;60.76;95180.66;1694654;85;20151;-67
2021/05/15 06:48:00;;;;;;;;;;;;;;;15.06;61.71;95185.37;1694632;84;20500;-68
2021/05/15 06:50:27;;;;;;;;;;;;;;;15.15;62.75;95184.98;1694517;85;20174;-68
2021/05/15 06:52:53;;;;;;;;;;;;;;;15.29;62.60;95187.50;1694575;85;20162;-68
2021/05/15 06:55:20;;;;;;;;;;;;;;;15.40;62.04;95183.92;1694615;85;20170;-68
2021/05/15 06:57:46;;;;;;;;;;;;;;;15.51;60.31;95184.30;1694585;85;20151;-68
2021/05/15 07:00:14;;;;;;;;;;;;;;;15.58;59.46;95180.91;1694619;84;20162;-68
2021/05/15 07:02:41;;;;;;;;;;;;;;;15.71;58.66;95178.59;1694719;84;20179;-67
2021/05/15 07:05:08;;;;;;;;;;;;;;;15.76;57.98;95193.41;1694623;85;20190;-68
2021/05/15 07:07:35;;;;;;;;;;;;;;;15.79;57.13;95188.41;1694445;85;20499;-68
2021/05/15 07:10:01;;;;;;;;;;;;;;;15.89;57.28;95200.36;1694664;85;20210;-68
2021/05/15 07:12:27;;;;;;;;;;;;;;;15.95;55.03;95195.22;1694719;84;20495;-68
2021/05/15 07:14:53;;;;;;;;;;;;;;;15.81;53.22;95199.85;1694707;84;20175;-68
2021/05/15 07:17:25;;;;;;;;;;;;;;;15.77;56.43;95195.16;1694432;85;20480;-68
2021/05/15 07:19:56;;;;;;;;;;;;;;;15.81;53.99;95194.53;1694991;85;20162;-68
2021/05/15 07:22:24;;;;;;;;;;;;;;;15.96;55.97;95195.16;1693921;85;20170;-68
2021/05/15 07:24:56;;;;;;;;;;;;;;;16.16;52.60;95198.23;1694647;85;20213;-68
2021/05/15 07:27:23;;;;;;;;;;;;;;;16.27;49.68;95195.53;1694960;85;20234;-68
2021/05/15 07:29:54;;;;;;;;;;;;;;;16.10;49.74;95190.98;1694846;85;20246;-68
2021/05/15 07:32:19;;;;;;;;;;;;;;;16.22;46.59;95191.27;1693785;85;20147;-68
2021/05/15 07:34:46;;;;;;;;;;;;;;;16.14;44.44;95188.59;1694825;85;20139;-68
2021/05/15 07:37:16;;;;;;;;;;;;;;;16.15;45.02;95187.20;1694719;85;20146;-68
2021/05/15 07:39:43;;;;;;;;;;;;;;;16.28;48.62;95189.25;1694428;85;20178;-69
2021/05/15 07:42:09;;;;;;;;;;;;;;;16.55;50.23;95192.41;1694951;84;20139;-68
2021/05/15 07:44:36;;;;;;;;;;;;;;;16.71;44.85;95187.21;1694752;85;20230;-68
2021/05/15 07:47:03;;;;;;;;;;;;;;;16.82;47.49;95185.75;1694617;85;20182;-68
2021/05/15 07:49:30;;;;;;;;;;;;;;;17.02;45.61;95186.57;1694857;84;20174;-68
2021/05/15 07:51:56;;;;;;;;;;;;;;;17.08;45.56;95188.47;1694700;85;20135;-68
2021/05/15 07:54:23;;;;;;;;;;;;;;;17.24;45.53;95187.69;1694705;85;20170;-68
2021/05/15 07:56:50;;;;;;;;;;;;;;;17.40;45.92;95187.27;1694718;85;20182;-68
2021/05/15 07:59:17;;;;;;;;;;;;;;;17.44;44.67;95182.66;1694754;85;20463;-68
2021/05/15 08:01:44;;;;;;;;;;;;;;;17.58;46.12;95174.77;1694852;85;20222;-68
2021/05/15 08:04:10;;;;;;;;;;;;;;;17.74;43.62;95185.52;1694929;85;20170;-68
2021/05/15 08:06:37;;;;;;;;;;;;;;;17.67;43.81;95191.64;1694827;85;20162;-68
2021/05/15 08:09:04;;;;;;;;;;;;;;;17.44;46.40;95190.66;1694696;85;20194;-68
2021/05/15 08:11:32;;;;;;;;;;;;;;;17.49;46.31;95187.28;1660715;85;20151;-68
2021/05/15 08:13:59;;;;;;;;;;;;;;;17.53;43.99;95185.68;1694789;85;20146;-68
2021/05/15 08:16:25;;;;;;;;;;;;;;;17.39;45.23;95176.23;1694842;85;20130;-68
2021/05/15 08:18:51;;;;;;;;;;;;;;;17.52;44.68;95181.78;1694786;85;20242;-68
2021/05/15 08:21:18;;;;;;;;;;;;;;;17.68;43.83;95181.34;1694706;85;20127;-68
2021/05/15 08:23:44;;;;;;;;;;;;;;;17.83;43.42;95174.36;1694582;85;20174;-68
2021/05/15 08:26:11;;;;;;;;;;;;;;;17.78;45.49;95177.72;1694912;85;20499;-68
2021/05/15 08:28:41;;;;;;;;;;;;;;;17.45;43.24;95171.89;1694729;85;20174;-69
2021/05/15 08:31:08;;;;;;;;;;;;;;;17.22;44.38;95184.23;1694824;85;20246;-68
2021/05/15 08:33:35;;;;;;;;;;;;;;;16.93;44.29;95184.36;1694912;85;20178;-68
2021/05/15 08:36:03;;;;;;;;;;;;;;;16.79;45.83;95181.06;1694637;85;20158;-68
2021/05/15 08:38:29;;;;;;;;;;;;;;;16.78;48.16;95178.88;1694643;84;20158;-68
2021/05/15 08:40:55;;;;;;;;;;;;;;;16.80;46.86;95172.12;1694734;85;20195;-68
2021/05/15 08:43:25;;;;;;;;;;;;;;;16.94;46.16;95168.78;1694486;85;20158;-68
2021/05/15 08:45:54;;;;;;;;;;;;;;;16.86;46.50;95169.16;1695089;84;20167;-68
2021/05/15 08:48:20;;;;;;;;;;;;;;;16.75;44.89;95168.31;1694743;85;20634;-68
2021/05/15 08:50:48;;;;;;;;;;;;;;;16.61;45.25;95167.67;1694805;85;20183;-68
2021/05/15 08:53:14;;;;;;;;;;;;;;;16.57;46.00;95170.56;1694664;85;20238;-68
2021/05/15 08:55:41;;;;;;;;;;;;;;;16.65;48.58;95165.70;1694802;85;20162;-68
2021/05/15 08:58:07;;;;;;;;;;;;;;;16.59;48.05;95168.21;1694716;84;20158;-68
2021/05/15 09:00:36;;;;;;;;;;;;;;;16.48;47.83;95159.90;1694718;85;20154;-68
2021/05/15 09:03:07;;;;;;;;;;;;;;;16.40;48.11;95162.94;1694642;85;20158;-68
2021/05/15 09:05:37;;;;;;;;;;;;;;;16.47;49.00;95163.95;1694814;85;20150;-68
2021/05/15 09:08:11;;;;;;;;;;;;;;;16.76;48.45;95155.88;1694876;85;20234;-68
2021/05/15 09:10:35;;;;;;;;;;;;;;;16.95;47.66;95154.50;1693198;85;20259;-68
2021/05/15 09:13:09;;;;;;;;;;;;;;;17.28;46.79;95147.42;1694901;85;20174;-68
2021/05/15 09:15:47;;;;;;;;;;;;;;;17.24;44.38;95151.69;1694783;85;20147;-68
2021/05/15 09:18:17;;;;;;;;;;;;;;;17.56;46.01;95153.13;1694714;85;20499;-68
2021/05/15 09:20:45;;;;;;;;;;;;;;;17.60;45.56;95158.70;1693501;85;20198;-68
2021/05/15 09:23:23;;;;;;;;;;;;;;;17.52;46.04;95161.30;1661187;85;20511;-68
2021/05/15 09:25:59;;;;;;;;;;;;;;;17.41;45.83;95153.02;1694784;84;20143;-68
2021/05/15 09:28:47;;;;;;;;;;;;;;;17.38;45.76;95167.81;1690482;85;20163;-68
2021/05/15 09:31:23;;;;;;;;;;;;;;;17.40;46.13;95166.41;1694311;85;20162;-68
2021/05/15 09:34:01;;;;;;;;;;;;;;;17.51;47.30;95169.36;1694790;85;20150;-68
2021/05/15 09:36:33;;;;;;;;;;;;;;;17.79;45.13;95171.45;1694673;84;20172;-68
2021/05/15 09:39:19;;;;;;;;;;;;;;;17.91;46.39;95167.28;1694577;85;20460;-68
2021/05/15 09:42:01;;;;;;;;;;;;;;;18.02;47.38;95179.59;1694885;85;20150;-68
2021/05/15 09:44:29;;;;;;;;;;;;;;;18.12;46.39;95174.61;1694751;85;20186;-68
2021/05/15 09:46:57;;;;;;;;;;;;;;;18.19;44.96;95177.78;1694620;85;20150;-68
2021/05/15 09:49:28;;;;;;;;;;;;;;;18.21;46.55;95176.75;1694938;85;20260;-68
2021/05/15 09:52:02;;;;;;;;;;;;;;;18.19;46.03;95180.45;1694698;85;20167;-68
2021/05/15 09:54:31;;;;;;;;;;;;;;;18.24;44.59;95182.39;1694873;85;20162;-68
2021/05/15 09:57:13;;;;;;;;;;;;;;;18.35;45.32;95181.34;1694764;84;20177;-68
2021/05/15 09:59:42;;;;;;;;;;;;;;;18.51;45.59;95177.33;1694718;84;20166;-68
2021/05/15 10:02:13;;;;;;;;;;;;;;;19.29;45.67;95173.31;1694641;85;20175;-68
2021/05/15 10:04:43;;;;;;;;;;;;;;;19.92;45.00;95166.35;1694879;85;20566;-68
2021/05/15 10:07:21;;;;;;;;;;;;;;;20.64;45.25;95173.02;1694678;85;20162;-69
2021/05/15 10:09:48;;;;;;;;;;;;;;;21.12;40.55;95170.25;1694559;85;20186;-69
2021/05/15 10:12:14;;;;;;;;;;;;;;;20.81;38.32;95171.89;1694599;85;20155;-69
2021/05/15 10:14:41;;;;;;;;;;;;;;;20.93;37.33;95161.70;1694855;85;20162;-69
2021/05/15 10:17:07;;;;;;;;;;;;;;;21.20;37.77;95165.71;1694725;85;20150;-69
2021/05/15 10:19:35;;;;;;;;;;;;;;;21.13;36.11;95166.59;1694666;85;20183;-69
2021/05/15 10:22:01;;;;;;;;;;;;;;;21.17;37.26;95160.07;1694823;85;20149;-69
2021/05/15 10:24:28;;;;;;;;;;;;;;;;;;1694618;85;20175;-69
2021/05/15 10:27:11;;;;;;;;;;;;;;;21.67;37.47;95148.69;1694642;85;20166;-69
2021/05/15 10:29:52;;;;;;;;;;;;;;;21.92;37.35;95146.48;1694772;84;20174;-69
2021/05/15 10:32:26;;;;;;;;;;;;;;;21.77;34.84;95151.10;1694751;85;20147;-68
2021/05/15 10:35:06;;;;;;;;;;;;;;;21.53;36.32;95149.16;1694543;85;20511;-69
2021/05/15 10:37:37;;;;;;;;;;;;;;;21.24;35.90;95156.96;1693878;85;20182;-68
2021/05/15 10:40:17;;;;;;;;;;;;;;;21.06;35.77;95152.36;1661236;85;20166;-69
2021/05/15 10:42:43;;;;;;;;;;;;;;;21.31;37.21;95143.02;1693675;85;20150;-68
2021/05/15 10:45:10;;;;;;;;;;;;;;;21.67;36.89;95141.97;1660453;85;20170;-69
2021/05/15 10:47:43;;;;;;;;;;;;;;;21.95;35.39;95145.80;1694594;85;20202;-69
2021/05/15 10:50:21;;;;;;;;;;;;;;;22.01;36.28;95144.50;1694711;85;20150;-68
2021/05/15 10:52:50;;;;;;;;;;;;;;;21.74;35.10;95143.27;1694758;85;20155;-69
2021/05/15 10:55:31;;;;;;;;;;;;;;;21.27;35.44;95150.04;1693608;85;20154;-69
2021/05/15 10:58:12;;;;;;;;;;;;;;;20.86;38.51;95155.88;1694746;85;20166;-68
2021/05/15 11:00:39;;;;;;;;;;;;;;;20.55;38.82;95154.36;1694718;85;20147;-69
2021/05/15 11:03:06;;;;;;;;;;;;;;;20.25;38.62;95153.98;1694736;84;20135;-68
2021/05/15 11:05:47;;;;;;;;;;;;;;;20.01;39.29;95146.19;1694704;85;20162;-69
2021/05/15 11:08:23;;;;;;;;;;;;;;;19.75;38.62;95152.66;1694751;85;20170;-69
2021/05/15 11:10:50;;;;;;;;;;;;;;;19.55;40.06;95157.02;1692590;84;20182;-69
2021/05/15 11:13:16;;;;;;;;;;;;;;;19.27;43.40;95160.02;1674186;86;20144;-68
2021/05/15 11:15:43;;;;;;;;;;;;;;;19.29;40.72;95148.75;1673963;86;20169;-69
2021/05/15 11:18:09;;;;;;;;;;;;;;;19.28;41.36;95148.83;1674082;86;20158;-68
2021/05/15 11:20:47;;;;;;;;;;;;;;;19.77;42.10;95138.72;1674061;85;20487;-68
2021/05/15 11:23:19;;;;;;;;;;;;;;;20.57;39.69;95146.23;1674113;85;20185;-69
2021/05/15 11:25:55;;;;;;;;;;;;;;;21.08;36.10;95141.05;1673363;85;20143;-68
2021/05/15 11:28:23;;;;;;;;;;;;;;;21.51;35.42;95136.33;1673755;85;20159;-68
2021/05/15 11:30:50;;;;;;;;;;;;;;;21.49;35.42;95136.91;1674110;85;20150;-69
2021/05/15 11:33:20;;;;;;;;;;;;;;;21.94;36.57;95127.95;1674037;86;20514;-69
2021/05/15 11:35:49;;;;;;;;;;;;;;;22.27;41.67;95125.68;1674290;85;20170;-69
2021/05/15 11:38:21;;;;;;;;;;;;;;;22.29;39.70;95124.60;1673992;86;20162;-68
2021/05/15 11:40:52;;;;;;;;;;;;;;;21.98;39.39;95124.58;1673887;86;20146;-68
2021/05/15 11:43:24;;;;;;;;;;;;;;;21.56;38.84;95127.95;1674499;86;20155;-68
2021/05/15 11:45:52;;;;;;;;;;;;;;;21.05;38.56;95130.53;1674197;86;20483;-68
2021/05/15 11:48:21;;;;;;;;;;;;;;;20.83;40.34;95132.44;1674080;85;20174;-68
2021/05/15 11:51:00;;;;;;;;;;;;;;;20.60;42.19;95132.13;1674008;85;20487;-69
2021/05/15 11:53:28;;;;;;;;;;;;;;;20.41;41.30;95137.81;1661981;86;20483;-68
2021/05/15 11:55:55;;;;;;;;;;;;;;;20.35;42.03;95141.36;1645164;86;20154;-68
2021/05/15 11:58:22;;;;;;;;;;;;;;;20.29;41.31;95139.45;1673961;86;20502;-68
2021/05/15 12:00:48;;;;;;;;;;;;;;;20.29;41.77;95138.11;1674073;85;20150;-68
2021/05/15 12:03:22;;;;;;;;;;;;;;;20.22;41.80;95139.45;1674087;85;20444;-68
2021/05/15 12:05:49;;;;;;;;;;;;;;;20.21;42.44;95135.53;1674314;85;20142;-68
2021/05/15 12:08:17;;;;;;;;;;;;;;;20.14;42.17;95139.09;1674051;86;20159;-68
2021/05/15 12:10:44;;;;;;;;;;;;;;;20.17;42.30;95132.20;1673899;85;20166;-68
2021/05/15 12:13:13;;;;;;;;;;;;;;;20.24;41.84;95130.84;1674092;85;20159;-68
2021/05/15 12:15:42;;;;;;;;;;;;;;;20.31;42.78;95132.67;1674304;85;20178;-68
2021/05/15 12:18:11;;;;;;;;;;;;;;;20.38;41.81;95129.09;1674052;86;20183;-68
2021/05/15 12:20:46;;;;;;;;;;;;;;;20.24;44.58;95128.66;1674111;86;20146;-68
2021/05/15 12:23:21;;;;;;;;;;;;;;;20.04;42.85;95132.12;1674128;85;20570;-68
2021/05/15 12:25:59;;;;;;;;;;;;;;;19.76;43.14;95127.64;1674058;86;20145;-68
2021/05/15 12:28:31;;;;;;;;;;;;;;;19.61;44.76;95130.75;1672534;86;20498;-68
2021/05/15 12:31:00;;;;;;;;;;;;;;;19.38;46.33;95134.83;1673702;86;20159;-68
2021/05/15 12:33:27;;;;;;;;;;;;;;;19.29;45.47;95130.03;1674231;86;20161;-68
2021/05/15 12:36:00;;;;;;;;;;;;;;;19.21;45.25;95126.95;1674162;86;20178;-68
2021/05/15 12:38:29;;;;;;;;;;;;;;;19.16;45.87;95127.23;1672648;86;20166;-68
2021/05/15 12:41:10;;;;;;;;;;;;;;;19.10;45.71;95122.72;1674121;86;20170;-68
2021/05/15 12:43:38;;;;;;;;;;;;;;;18.99;45.36;95132.23;1673919;86;20487;-68
2021/05/15 12:46:10;;;;;;;;;;;;;;;18.89;46.23;95135.06;1645184;86;20134;-68
2021/05/15 12:48:39;;;;;;;;;;;;;;;18.78;47.64;95133.03;1674126;86;20166;-68
2021/05/15 12:51:08;;;;;;;;;;;;;;;18.63;49.54;95142.38;1674281;86;20185;-68
2021/05/15 12:53:34;;;;;;;;;;;;;;;18.43;49.19;95151.53;1674274;85;20154;-68
2021/05/15 12:56:01;;;;;;;;;;;;;;;17.80;52.84;95167.01;1674161;86;20153;-69
2021/05/15 12:58:28;;;;;;;;;;;;;;;17.36;53.51;95160.84;1674365;85;20181;-68
2021/05/15 13:01:03;;;;;;;;;;;;;;;16.73;58.26;95183.53;1674070;85;20194;-68